• Join FlightAware (Why Join?)
  • Login
  • US Flag 
01:57PM EDT


 

Airport Tracker/Info


-or-


 

Live Flight TrackerFlight Track Log ✈ UAL1432 ✈ 30-Jun-2013 ✈ KIAH - MNMG / MGA

Flight Track Log - Related Links

Times and Time Zones

All times are in EDT time to prevent confusion due to time zone crossing. See the UAL1432 flight status page for this flight to view local times or setup timezone preferences in your user account.

Time Position Orientation Groundspeed Altitude Reporting Facility
EDT Latitude Longitude Course Direction KTS MPH feet Rate Location/Type
10:17AM 29.9547 -95.3347 135° Southeast 169 194 1,000  Level Houston Center
10:18AM 29.9358 -95.3131 135° Southeast 195 224 1,700 1,800 Climbing Houston Center
10:19AM 29.8919 -95.2594 133° Southeast 232 267 3,900 2,220 Climbing Houston Center
10:20AM 29.8322 -95.1931 136° Southeast 297 342 6,300 2,280 Climbing Houston Center
10:21AM 29.7589 -95.1558 156° South 321 369 8,600 2,280 Climbing Houston Center
10:22AM 29.6553 -95.1425 174° South 354 407 11,000 2,100 Climbing Houston Center
10:23AM 29.5444 -95.1203 170° South 403 464 13,000 1,980 Climbing Houston Center
10:24AM 29.4556 -95.0458 144° Southeast 399 459 15,300 2,160 Climbing Houston Center
10:25AM 29.3642 -94.9597 141° Southeast 421 484 17,500 2,340 Climbing Houston Center
10:26AM 29.2744 -94.8739 140° Southeast 422 486 20,200 2,040 Climbing Houston Center
10:27AM 29.1508 -94.7881 149° Southeast 435 501 21,800 1,320 Climbing Houston Center
10:28AM 29.0414 -94.7136 149° Southeast 453 521 23,000 840 Climbing Houston Center
10:29AM 28.9325 -94.6392 149° Southeast 456 525 23,600 1,140 Climbing Houston Center
10:30AM 28.8225 -94.5656 150° Southeast 456 525 25,400 1,440 Climbing Houston Center
10:31AM 28.7103 -94.4894 149° Southeast 465 535 26,600 1,080 Climbing Houston Center
10:32AM 28.5947 -94.4119 150° Southeast 479 551 27,700 1,020 Climbing Houston Center
10:33AM 28.4747 -94.3317 150° Southeast 496 571 28,700 1,020 Climbing Houston Center
10:34AM 28.3536 -94.2522 150° Southeast 503 579 29,800 1,140 Climbing Houston Center
10:35AM 28.2064 -94.1531 149° Southeast 511 588 31,100 1,080 Climbing Houston Center
10:36AM 28.0919 -94.0569 143° Southeast 512 589 32,100 900 Climbing Houston Center
10:37AM 27.9833 -93.9497 139° Southeast 517 595 33,000 420 Climbing Houston Center
10:38AM 27.8725 -93.8453 140° Southeast 519 597 33,000  Level Houston Center
10:39AM 27.7631 -93.7403 140° Southeast 517 595 33,000  Level Houston Center
10:40AM 27.6528 -93.6394 141° Southeast 512 589 33,000  Level Houston Center
10:41AM 27.5447 -93.5358 140° Southeast 509 586 33,000  Level Houston Center
10:42AM 27.4150 -93.4114 140° Southeast 510 587 33,000  Level Houston Center
10:43AM 27.3069 -93.3092 140° Southeast 510 587 33,000  Level Houston Center
10:44AM 27.1994 -93.2092 140° Southeast 505 581 33,000  Level Houston Center
10:45AM 27.0967 -93.1119 140° Southeast 504 580 33,000  Level Houston Center
10:46AM 26.9892 -93.0136 141° Southeast 502 578 33,000 -60 Level Houston Center
10:47AM 26.8833 -92.9144 140° Southeast 499 574 32,900 -60 Descending Houston Center
10:48AM 26.7531 -92.8006 142° Southeast 497 572 32,900  Level Houston Center
10:50AM 26.6390 -92.7255 150° Southeast  Level FlightAware Approximate
10:57AM 25.8776 -92.2286 150° Southeast  Level FlightAware Approximate
10:58AM 25.7690 -92.1576 149° Southeast  Level FlightAware Approximate
10:59AM 25.6605 -92.0864 149° Southeast  Level FlightAware Approximate
11:00AM 25.5520 -92.0153 149° Southeast  Level FlightAware Approximate
11:01AM 25.4435 -91.9443 149° Southeast  Level FlightAware Approximate
11:02AM 25.3349 -91.8734 149° Southeast  Level FlightAware Approximate
11:03AM 25.2264 -91.8027 149° Southeast  Level FlightAware Approximate
11:04AM 25.1177 -91.7321 150° Southeast  Level FlightAware Approximate
11:05AM 25.0091 -91.6616 150° Southeast  Level FlightAware Approximate
11:06AM 24.9004 -91.5912 150° Southeast  Level FlightAware Approximate
11:07AM 24.7916 -91.5210 150° Southeast  Level FlightAware Approximate
11:08AM 24.6829 -91.4509 150° Southeast  Level FlightAware Approximate
11:09AM 24.5741 -91.3809 150° Southeast  Level FlightAware Approximate
11:10AM 24.4632 -91.3155 156° South  Level FlightAware Approximate
11:11AM 24.3479 -91.2595 156° South  Level FlightAware Approximate
11:12AM 24.2326 -91.2037 156° South  Level FlightAware Approximate
11:13AM 24.1173 -91.1480 156° South  Level FlightAware Approximate
11:14AM 24.0020 -91.0924 156° South  Level FlightAware Approximate
11:15AM 23.8866 -91.0369 156° South  Level FlightAware Approximate
11:16AM 23.7712 -90.9814 156° South  Level FlightAware Approximate
11:17AM 23.6558 -90.9261 156° South  Level FlightAware Approximate
11:18AM 23.5404 -90.8709 156° South  Level FlightAware Approximate
11:19AM 23.4250 -90.8158 156° South  Level FlightAware Approximate
11:20AM 23.3095 -90.7607 156° South  Level FlightAware Approximate
11:21AM 23.1940 -90.7058 156° South  Level FlightAware Approximate
11:22AM 23.0785 -90.6509 156° South  Level FlightAware Approximate
11:23AM 22.9630 -90.5962 156° South  Level FlightAware Approximate
11:24AM 22.8475 -90.5415 156° South  Level FlightAware Approximate
11:25AM 22.7319 -90.4870 156° South  Level FlightAware Approximate
11:26AM 22.6164 -90.4325 156° South  Level FlightAware Approximate
11:27AM 22.5008 -90.3781 157° South  Level FlightAware Approximate
11:28AM 22.3852 -90.3239 157° South  Level FlightAware Approximate
11:29AM 22.2695 -90.2697 157° South  Level FlightAware Approximate
11:30AM 22.1539 -90.2155 157° South  Level FlightAware Approximate
11:31AM 22.0382 -90.1615 157° South  Level FlightAware Approximate
11:32AM 21.9226 -90.1076 157° South  Level FlightAware Approximate
11:33AM 21.8069 -90.0537 157° South  Level FlightAware Approximate
11:34AM 21.6911 -90.0000 157° South  Level FlightAware Approximate
11:35AM 21.5754 -89.9463 157° South  Level FlightAware Approximate
11:36AM 21.4597 -89.8927 157° South  Level FlightAware Approximate
11:37AM 21.3439 -89.8392 157° South  Level FlightAware Approximate
11:38AM 21.2282 -89.7857 157° South  Level FlightAware Approximate
11:39AM 21.1124 -89.7323 157° South  Level FlightAware Approximate
11:40AM 20.9966 -89.6791 157° South  Level FlightAware Approximate
11:41AM 20.8801 -89.6275 158° South  Level FlightAware Approximate
11:42AM 20.7628 -89.5781 158° South  Level FlightAware Approximate
11:43AM 20.6456 -89.5288 159° South  Level FlightAware Approximate
11:44AM 20.5269 -89.4835 161° South  Level FlightAware Approximate
11:45AM 20.4078 -89.4397 161° South  Level FlightAware Approximate
11:46AM 20.2887 -89.3954 159° South  Level FlightAware Approximate
11:47AM 20.1709 -89.3477 159° South  Level FlightAware Approximate
11:48AM 20.0531 -89.3001 159° South  Level FlightAware Approximate
11:49AM 19.9353 -89.2526 159° South  Level FlightAware Approximate
11:50AM 19.8174 -89.2051 159° South  Level FlightAware Approximate
11:51AM 19.6995 -89.1577 159° South  Level FlightAware Approximate
11:52AM 19.5817 -89.1104 159° South  Level FlightAware Approximate
11:53AM 19.4638 -89.0631 159° South  Level FlightAware Approximate
11:54AM 19.3459 -89.0159 159° South  Level FlightAware Approximate
11:55AM 19.2279 -88.9688 159° South  Level FlightAware Approximate
11:56AM 19.1100 -88.9218 159° South  Level FlightAware Approximate
11:57AM 18.9921 -88.8748 159° South  Level FlightAware Approximate
11:58AM 18.8741 -88.8278 159° South  Level FlightAware Approximate
11:59AM 18.7562 -88.7810 159° South  Level FlightAware Approximate
12:00PM 18.6382 -88.7342 159° South  Level FlightAware Approximate
12:01PM 18.5202 -88.6874 159° South  Level FlightAware Approximate
12:02PM 18.4022 -88.6408 159° South  Level FlightAware Approximate
12:03PM 18.2831 -88.5975 161° South  Level FlightAware Approximate
12:04PM 18.1637 -88.5548 161° South  Level FlightAware Approximate
12:05PM 18.0444 -88.5122 161° South  Level FlightAware Approximate
12:06PM 17.9250 -88.4697 161° South  Level FlightAware Approximate
12:07PM 17.8084 -88.4195 157° South  Level FlightAware Approximate
12:08PM 17.6920 -88.3689 157° South  Level FlightAware Approximate
12:09PM 17.5755 -88.3183 158° South  Level FlightAware Approximate
12:10PM 17.4544 -88.2842 169° South  Level FlightAware Approximate
12:11PM 17.3306 -88.2594 169° South  Level FlightAware Approximate
12:12PM 17.2068 -88.2347 169° South  Level FlightAware Approximate
12:13PM 17.0830 -88.2104 170° South  Level FlightAware Approximate
12:14PM 16.9588 -88.1876 170° South  Level FlightAware Approximate
12:15PM 16.8347 -88.1648 170° South  Level FlightAware Approximate
12:16PM 16.7106 -88.1420 170° South  Level FlightAware Approximate
12:17PM 16.5865 -88.1192 170° South  Level FlightAware Approximate
12:18PM 16.4631 -88.0966 170° South  Level FlightAware Approximate
12:19PM 16.3398 -88.0741 170° South  Level FlightAware Approximate
12:20PM 16.2164 -88.0515 170° South  Level FlightAware Approximate
12:21PM 16.0931 -88.0285 169° South  Level FlightAware Approximate
12:22PM 15.9703 -88.0032 169° South  Level FlightAware Approximate
12:23PM 15.8474 -87.9780 169° South  Level FlightAware Approximate
12:24PM 15.7245 -87.9528 169° South  Level FlightAware Approximate
12:25PM 15.6017 -87.9276 169° South  Level FlightAware Approximate
12:26PM 15.4788 -87.9025 169° South  Level FlightAware Approximate
12:27PM 15.3650 -87.8491 154° Southeast  Level FlightAware Approximate
12:28PM 15.2512 -87.7949 157° South  Level FlightAware Approximate
12:29PM 15.1361 -87.7437 157° South  Level FlightAware Approximate
12:30PM 15.0210 -87.6926 157° South  Level FlightAware Approximate
12:31PM 14.9059 -87.6415 157° South  Level FlightAware Approximate
12:32PM 14.7917 -87.5885 155° Southeast  Level FlightAware Approximate
12:33PM 14.6782 -87.5338 155° Southeast  Level FlightAware Approximate
12:34PM 14.5646 -87.4791 155° Southeast  Level FlightAware Approximate
12:35PM 14.4511 -87.4246 155° Southeast  Level FlightAware Approximate
12:36PM 14.3375 -87.3701 155° Southeast  Level FlightAware Approximate
12:37PM 14.2239 -87.3157 155° Southeast  Level FlightAware Approximate
12:38PM 14.1103 -87.2614 155° Southeast  Level FlightAware Approximate
12:39PM 13.9947 -87.2194 187° South  Level FlightAware Approximate
12:40PM 13.8704 -87.2350 187° South  Level FlightAware Approximate
12:41PM 13.7461 -87.2500 180° South  Level FlightAware Approximate
12:42PM 13.6221 -87.2611 194° South  Level FlightAware Approximate
12:43PM 13.5255 -87.1944 145° Southeast  Level FlightAware Approximate
12:44PM 13.4227 -87.1209 145° Southeast  Level FlightAware Approximate
12:45PM 13.3198 -87.0475 145° Southeast  Level FlightAware Approximate
12:46PM 13.2170 -86.9740 145° Southeast  Level FlightAware Approximate
12:47PM 13.1164 -86.8974 143° Southeast  Level FlightAware Approximate
12:48PM 13.0170 -86.8193 143° Southeast  Level FlightAware Approximate
12:49PM 12.9166 -86.7424 145° Southeast  Level FlightAware Approximate
12:50PM 12.8145 -86.6681 145° Southeast  Level FlightAware Approximate
12:51PM 12.7129 -86.5930 144° Southeast  Level FlightAware Approximate
12:52PM 12.6116 -86.5175 145° Southeast  Level FlightAware Approximate
12:53PM 12.5095 -86.4432 145° Southeast  Level FlightAware Approximate
12:54PM 12.4078 -86.3683 144° Southeast  Level FlightAware Approximate
12:55PM 12.3079 -86.2912 136° Southeast  Level FlightAware Approximate
12:56PM 12.2066 -86.2175 144° Southeast  Level FlightAware Approximate
12:57PM 12.1500 -86.1500 44° Northeast  Level FlightAware Approximate
12:58PM 12.1415 -86.1682 44° Northeast  Level Estimated
12:59PM 12.1415 -86.1682 44° Northeast  Level Estimated
01:00PM 12.1415 -86.1682 44° Northeast  Level Estimated
01:01PM 12.1415 -86.1682 44° Northeast  Level Estimated